sensor_id;sensor_type;location;lat;lon;timestamp;P1;durP1;ratioP1;P2;durP2;ratioP2
2598;SDS011;1309;48.810;8.954;2023-06-14T00:00:51;6.03;;;4.60;;
2598;SDS011;1309;48.810;8.954;2023-06-14T00:03:20;7.87;;;4.30;;
2598;SDS011;1309;48.810;8.954;2023-06-14T00:05:48;6.37;;;4.30;;
2598;SDS011;1309;48.810;8.954;2023-06-14T00:08:22;6.43;;;4.93;;
2598;SDS011;1309;48.810;8.954;2023-06-14T00:10:53;6.40;;;4.40;;
2598;SDS011;1309;48.810;8.954;2023-06-14T00:13:23;7.00;;;4.77;;
2598;SDS011;1309;48.810;8.954;2023-06-14T00:15:53;9.70;;;5.00;;
2598;SDS011;1309;48.810;8.954;2023-06-14T00:18:21;6.20;;;4.77;;
2598;SDS011;1309;48.810;8.954;2023-06-14T00:21:00;7.67;;;5.23;;
2598;SDS011;1309;48.810;8.954;2023-06-14T00:23:30;5.53;;;4.30;;
2598;SDS011;1309;48.810;8.954;2023-06-14T00:25:58;7.00;;;4.70;;
2598;SDS011;1309;48.810;8.954;2023-06-14T00:28:28;6.23;;;5.00;;
2598;SDS011;1309;48.810;8.954;2023-06-14T00:30:56;7.80;;;4.40;;
2598;SDS011;1309;48.810;8.954;2023-06-14T00:33:24;8.77;;;4.83;;
2598;SDS011;1309;48.810;8.954;2023-06-14T00:35:58;7.97;;;5.00;;
2598;SDS011;1309;48.810;8.954;2023-06-14T00:38:28;6.40;;;4.77;;
2598;SDS011;1309;48.810;8.954;2023-06-14T00:41:02;7.47;;;4.63;;
2598;SDS011;1309;48.810;8.954;2023-06-14T00:43:35;7.33;;;5.37;;
2598;SDS011;1309;48.810;8.954;2023-06-14T00:46:08;7.47;;;4.27;;
2598;SDS011;1309;48.810;8.954;2023-06-14T00:48:39;8.27;;;5.33;;
2598;SDS011;1309;48.810;8.954;2023-06-14T00:51:07;8.77;;;4.37;;
2598;SDS011;1309;48.810;8.954;2023-06-14T00:53:35;8.10;;;4.97;;
2598;SDS011;1309;48.810;8.954;2023-06-14T00:56:12;6.70;;;5.13;;
2598;SDS011;1309;48.810;8.954;2023-06-14T00:58:44;8.50;;;4.53;;
2598;SDS011;1309;48.810;8.954;2023-06-14T01:01:12;7.20;;;5.00;;
2598;SDS011;1309;48.810;8.954;2023-06-14T01:03:42;7.70;;;5.00;;
2598;SDS011;1309;48.810;8.954;2023-06-14T01:06:15;5.83;;;4.17;;
2598;SDS011;1309;48.810;8.954;2023-06-14T01:08:56;9.43;;;4.80;;
2598;SDS011;1309;48.810;8.954;2023-06-14T01:11:32;14.30;;;5.10;;
2598;SDS011;1309;48.810;8.954;2023-06-14T01:14:04;7.13;;;5.40;;
2598;SDS011;1309;48.810;8.954;2023-06-14T01:16:32;7.07;;;4.67;;
2598;SDS011;1309;48.810;8.954;2023-06-14T01:19:02;7.97;;;5.30;;
2598;SDS011;1309;48.810;8.954;2023-06-14T01:21:31;6.80;;;4.53;;
2598;SDS011;1309;48.810;8.954;2023-06-14T01:24:05;7.33;;;4.30;;
2598;SDS011;1309;48.810;8.954;2023-06-14T01:26:35;7.90;;;5.40;;
2598;SDS011;1309;48.810;8.954;2023-06-14T01:29:04;8.40;;;5.10;;
2598;SDS011;1309;48.810;8.954;2023-06-14T01:31:33;10.23;;;4.83;;
2598;SDS011;1309;48.810;8.954;2023-06-14T01:34:08;9.50;;;4.87;;
2598;SDS011;1309;48.810;8.954;2023-06-14T01:36:44;6.90;;;4.90;;
2598;SDS011;1309;48.810;8.954;2023-06-14T01:42:06;8.80;;;5.30;;
2598;SDS011;1309;48.810;8.954;2023-06-14T01:44:34;10.50;;;5.30;;
2598;SDS011;1309;48.810;8.954;2023-06-14T01:47:02;7.73;;;5.67;;
2598;SDS011;1309;48.810;8.954;2023-06-14T01:49:33;7.30;;;4.70;;
2598;SDS011;1309;48.810;8.954;2023-06-14T01:52:02;7.90;;;5.27;;
2598;SDS011;1309;48.810;8.954;2023-06-14T01:54:31;9.80;;;5.40;;
2598;SDS011;1309;48.810;8.954;2023-06-14T01:57:03;9.17;;;6.07;;
2598;SDS011;1309;48.810;8.954;2023-06-14T01:59:36;9.00;;;5.30;;
2598;SDS011;1309;48.810;8.954;2023-06-14T02:02:04;8.20;;;5.63;;
2598;SDS011;1309;48.810;8.954;2023-06-14T02:04:32;8.67;;;5.73;;
2598;SDS011;1309;48.810;8.954;2023-06-14T02:07:05;15.20;;;5.90;;
2598;SDS011;1309;48.810;8.954;2023-06-14T02:09:35;5.57;;;4.67;;
2598;SDS011;1309;48.810;8.954;2023-06-14T02:12:06;8.00;;;5.00;;
2598;SDS011;1309;48.810;8.954;2023-06-14T02:14:39;9.13;;;4.63;;
2598;SDS011;1309;48.810;8.954;2023-06-14T02:17:08;7.47;;;5.07;;
2598;SDS011;1309;48.810;8.954;2023-06-14T02:19:36;9.80;;;5.47;;
2598;SDS011;1309;48.810;8.954;2023-06-14T02:22:07;7.97;;;5.10;;
2598;SDS011;1309;48.810;8.954;2023-06-14T02:24:35;8.33;;;5.00;;
2598;SDS011;1309;48.810;8.954;2023-06-14T02:27:05;6.10;;;4.33;;
2598;SDS011;1309;48.810;8.954;2023-06-14T02:29:36;8.70;;;5.63;;
2598;SDS011;1309;48.810;8.954;2023-06-14T02:32:08;8.13;;;4.97;;
2598;SDS011;1309;48.810;8.954;2023-06-14T02:34:36;7.53;;;5.50;;
2598;SDS011;1309;48.810;8.954;2023-06-14T02:37:10;8.17;;;4.83;;
2598;SDS011;1309;48.810;8.954;2023-06-14T02:39:39;7.13;;;4.90;;
2598;SDS011;1309;48.810;8.954;2023-06-14T02:42:15;7.83;;;5.23;;
2598;SDS011;1309;48.810;8.954;2023-06-14T02:44:46;6.43;;;4.97;;
2598;SDS011;1309;48.810;8.954;2023-06-14T02:47:17;6.10;;;5.27;;
2598;SDS011;1309;48.810;8.954;2023-06-14T02:49:45;5.90;;;4.77;;
2598;SDS011;1309;48.810;8.954;2023-06-14T02:52:18;10.27;;;5.40;;
2598;SDS011;1309;48.810;8.954;2023-06-14T02:54:47;8.97;;;5.50;;
2598;SDS011;1309;48.810;8.954;2023-06-14T02:57:20;7.23;;;4.60;;
2598;SDS011;1309;48.810;8.954;2023-06-14T02:59:48;7.23;;;4.60;;
2598;SDS011;1309;48.810;8.954;2023-06-14T03:02:16;9.30;;;6.03;;
2598;SDS011;1309;48.810;8.954;2023-06-14T03:04:47;9.30;;;5.57;;
2598;SDS011;1309;48.810;8.954;2023-06-14T03:07:16;6.80;;;5.57;;
2598;SDS011;1309;48.810;8.954;2023-06-14T03:09:48;8.17;;;5.27;;
2598;SDS011;1309;48.810;8.954;2023-06-14T03:12:16;7.30;;;5.97;;
2598;SDS011;1309;48.810;8.954;2023-06-14T03:14:52;9.27;;;5.50;;
2598;SDS011;1309;48.810;8.954;2023-06-14T03:17:26;10.80;;;5.80;;
2598;SDS011;1309;48.810;8.954;2023-06-14T03:19:56;7.53;;;5.90;;
2598;SDS011;1309;48.810;8.954;2023-06-14T03:22:24;7.00;;;5.10;;
2598;SDS011;1309;48.810;8.954;2023-06-14T03:24:52;8.27;;;5.50;;
2598;SDS011;1309;48.810;8.954;2023-06-14T03:27:23;8.70;;;5.73;;
2598;SDS011;1309;48.810;8.954;2023-06-14T03:29:51;6.63;;;5.23;;
2598;SDS011;1309;48.810;8.954;2023-06-14T03:32:20;7.40;;;4.97;;
2598;SDS011;1309;48.810;8.954;2023-06-14T03:34:54;9.53;;;5.90;;
2598;SDS011;1309;48.810;8.954;2023-06-14T03:37:22;6.73;;;4.93;;
2598;SDS011;1309;48.810;8.954;2023-06-14T03:39:52;7.90;;;5.47;;
2598;SDS011;1309;48.810;8.954;2023-06-14T03:42:22;9.90;;;6.20;;
2598;SDS011;1309;48.810;8.954;2023-06-14T03:44:51;11.03;;;5.93;;
2598;SDS011;1309;48.810;8.954;2023-06-14T03:47:19;6.93;;;5.70;;
2598;SDS011;1309;48.810;8.954;2023-06-14T03:49:47;8.60;;;5.23;;
2598;SDS011;1309;48.810;8.954;2023-06-14T03:52:18;6.20;;;4.90;;
2598;SDS011;1309;48.810;8.954;2023-06-14T03:54:47;7.20;;;4.97;;
2598;SDS011;1309;48.810;8.954;2023-06-14T03:57:19;9.17;;;6.13;;
2598;SDS011;1309;48.810;8.954;2023-06-14T03:59:56;10.10;;;6.10;;
2598;SDS011;1309;48.810;8.954;2023-06-14T04:02:24;7.97;;;5.40;;
2598;SDS011;1309;48.810;8.954;2023-06-14T04:05:01;9.83;;;6.00;;
2598;SDS011;1309;48.810;8.954;2023-06-14T04:07:32;11.80;;;6.70;;
2598;SDS011;1309;48.810;8.954;2023-06-14T04:10:08;8.20;;;5.77;;
2598;SDS011;1309;48.810;8.954;2023-06-14T04:12:36;7.33;;;5.53;;
2598;SDS011;1309;48.810;8.954;2023-06-14T04:15:06;11.20;;;5.30;;
2598;SDS011;1309;48.810;8.954;2023-06-14T04:17:46;9.30;;;6.07;;
2598;SDS011;1309;48.810;8.954;2023-06-14T04:20:19;8.50;;;5.83;;
2598;SDS011;1309;48.810;8.954;2023-06-14T04:22:52;6.60;;;5.10;;
2598;SDS011;1309;48.810;8.954;2023-06-14T04:25:23;8.73;;;6.00;;
2598;SDS011;1309;48.810;8.954;2023-06-14T04:27:58;7.43;;;5.50;;
2598;SDS011;1309;48.810;8.954;2023-06-14T04:30:36;9.90;;;5.83;;
2598;SDS011;1309;48.810;8.954;2023-06-14T04:33:11;10.80;;;6.40;;
2598;SDS011;1309;48.810;8.954;2023-06-14T04:35:41;7.73;;;5.20;;
2598;SDS011;1309;48.810;8.954;2023-06-14T04:38:14;10.77;;;5.80;;
2598;SDS011;1309;48.810;8.954;2023-06-14T04:40:42;9.10;;;6.13;;
2598;SDS011;1309;48.810;8.954;2023-06-14T04:43:12;7.40;;;5.13;;
2598;SDS011;1309;48.810;8.954;2023-06-14T04:45:45;7.20;;;5.20;;
2598;SDS011;1309;48.810;8.954;2023-06-14T04:48:15;9.40;;;5.63;;
2598;SDS011;1309;48.810;8.954;2023-06-14T04:50:46;9.40;;;5.73;;
2598;SDS011;1309;48.810;8.954;2023-06-14T04:53:19;7.43;;;5.23;;
2598;SDS011;1309;48.810;8.954;2023-06-14T04:55:49;10.77;;;6.60;;
2598;SDS011;1309;48.810;8.954;2023-06-14T04:58:21;8.27;;;5.70;;
2598;SDS011;1309;48.810;8.954;2023-06-14T05:00:53;11.33;;;5.50;;
2598;SDS011;1309;48.810;8.954;2023-06-14T05:03:22;13.20;;;6.73;;
2598;SDS011;1309;48.810;8.954;2023-06-14T05:05:57;7.43;;;4.83;;
2598;SDS011;1309;48.810;8.954;2023-06-14T05:08:28;11.17;;;5.80;;
2598;SDS011;1309;48.810;8.954;2023-06-14T05:10:56;10.60;;;5.97;;
2598;SDS011;1309;48.810;8.954;2023-06-14T05:13:32;8.90;;;5.83;;
2598;SDS011;1309;48.810;8.954;2023-06-14T05:16:02;8.50;;;6.03;;
2598;SDS011;1309;48.810;8.954;2023-06-14T05:18:37;12.17;;;6.20;;
2598;SDS011;1309;48.810;8.954;2023-06-14T05:21:06;7.53;;;5.90;;
2598;SDS011;1309;48.810;8.954;2023-06-14T05:23:35;9.60;;;5.93;;
2598;SDS011;1309;48.810;8.954;2023-06-14T05:26:03;7.50;;;5.80;;
2598;SDS011;1309;48.810;8.954;2023-06-14T05:28:33;7.90;;;5.40;;
2598;SDS011;1309;48.810;8.954;2023-06-14T05:31:05;8.50;;;5.73;;
2598;SDS011;1309;48.810;8.954;2023-06-14T05:33:33;10.53;;;7.60;;
2598;SDS011;1309;48.810;8.954;2023-06-14T05:36:05;11.30;;;6.73;;
2598;SDS011;1309;48.810;8.954;2023-06-14T05:38:35;7.83;;;6.47;;
2598;SDS011;1309;48.810;8.954;2023-06-14T05:41:04;8.40;;;6.50;;
2598;SDS011;1309;48.810;8.954;2023-06-14T05:43:35;13.00;;;6.70;;
2598;SDS011;1309;48.810;8.954;2023-06-14T05:46:10;11.57;;;6.13;;
2598;SDS011;1309;48.810;8.954;2023-06-14T05:48:41;8.47;;;7.03;;
2598;SDS011;1309;48.810;8.954;2023-06-14T05:51:12;9.80;;;6.40;;
2598;SDS011;1309;48.810;8.954;2023-06-14T05:53:39;9.97;;;7.23;;
2598;SDS011;1309;48.810;8.954;2023-06-14T05:56:10;7.80;;;6.40;;
2598;SDS011;1309;48.810;8.954;2023-06-14T05:58:37;12.90;;;6.50;;
2598;SDS011;1309;48.810;8.954;2023-06-14T06:01:10;9.17;;;6.40;;
2598;SDS011;1309;48.810;8.954;2023-06-14T06:03:43;10.00;;;6.40;;
2598;SDS011;1309;48.810;8.954;2023-06-14T06:06:16;7.40;;;6.20;;
2598;SDS011;1309;48.810;8.954;2023-06-14T06:08:45;9.80;;;6.43;;
2598;SDS011;1309;48.810;8.954;2023-06-14T06:11:14;13.07;;;6.40;;
2598;SDS011;1309;48.810;8.954;2023-06-14T06:13:42;9.43;;;6.70;;
2598;SDS011;1309;48.810;8.954;2023-06-14T06:16:16;9.70;;;5.73;;
2598;SDS011;1309;48.810;8.954;2023-06-14T06:18:44;9.70;;;7.03;;
2598;SDS011;1309;48.810;8.954;2023-06-14T06:21:12;7.10;;;6.17;;
2598;SDS011;1309;48.810;8.954;2023-06-14T06:23:47;13.60;;;6.13;;
2598;SDS011;1309;48.810;8.954;2023-06-14T06:26:15;9.77;;;5.73;;
2598;SDS011;1309;48.810;8.954;2023-06-14T06:28:46;11.90;;;7.13;;
2598;SDS011;1309;48.810;8.954;2023-06-14T06:31:18;9.60;;;6.17;;
2598;SDS011;1309;48.810;8.954;2023-06-14T06:33:46;7.93;;;6.00;;
2598;SDS011;1309;48.810;8.954;2023-06-14T06:36:22;9.03;;;6.77;;
2598;SDS011;1309;48.810;8.954;2023-06-14T06:38:54;8.83;;;6.90;;
2598;SDS011;1309;48.810;8.954;2023-06-14T06:41:22;9.40;;;6.63;;
2598;SDS011;1309;48.810;8.954;2023-06-14T06:43:55;9.03;;;6.90;;
2598;SDS011;1309;48.810;8.954;2023-06-14T06:46:25;7.77;;;6.20;;
2598;SDS011;1309;48.810;8.954;2023-06-14T06:48:55;7.80;;;6.67;;
2598;SDS011;1309;48.810;8.954;2023-06-14T06:51:23;9.33;;;6.77;;
2598;SDS011;1309;48.810;8.954;2023-06-14T06:53:54;14.03;;;6.90;;
2598;SDS011;1309;48.810;8.954;2023-06-14T06:56:22;9.43;;;6.73;;
2598;SDS011;1309;48.810;8.954;2023-06-14T06:58:53;9.93;;;7.10;;
2598;SDS011;1309;48.810;8.954;2023-06-14T07:01:21;8.53;;;6.07;;
2598;SDS011;1309;48.810;8.954;2023-06-14T07:03:53;9.37;;;6.50;;
2598;SDS011;1309;48.810;8.954;2023-06-14T07:06:24;10.77;;;6.17;;
2598;SDS011;1309;48.810;8.954;2023-06-14T07:08:53;11.30;;;7.10;;
2598;SDS011;1309;48.810;8.954;2023-06-14T07:11:27;13.40;;;6.90;;
2598;SDS011;1309;48.810;8.954;2023-06-14T07:14:00;10.33;;;6.90;;
2598;SDS011;1309;48.810;8.954;2023-06-14T07:16:31;10.23;;;6.60;;
2598;SDS011;1309;48.810;8.954;2023-06-14T07:19:03;10.60;;;7.20;;
2598;SDS011;1309;48.810;8.954;2023-06-14T07:21:36;9.20;;;6.33;;
2598;SDS011;1309;48.810;8.954;2023-06-14T07:24:09;7.83;;;5.80;;
2598;SDS011;1309;48.810;8.954;2023-06-14T07:26:37;10.00;;;7.33;;
2598;SDS011;1309;48.810;8.954;2023-06-14T07:29:05;9.80;;;7.33;;
2598;SDS011;1309;48.810;8.954;2023-06-14T07:31:41;9.40;;;7.53;;
2598;SDS011;1309;48.810;8.954;2023-06-14T07:34:11;10.20;;;6.60;;
2598;SDS011;1309;48.810;8.954;2023-06-14T07:36:40;8.13;;;6.87;;
2598;SDS011;1309;48.810;8.954;2023-06-14T07:39:11;9.20;;;7.23;;
2598;SDS011;1309;48.810;8.954;2023-06-14T07:41:41;9.20;;;6.23;;
2598;SDS011;1309;48.810;8.954;2023-06-14T07:44:09;9.37;;;6.70;;
2598;SDS011;1309;48.810;8.954;2023-06-14T07:46:51;12.20;;;6.70;;
2598;SDS011;1309;48.810;8.954;2023-06-14T07:49:22;13.10;;;7.17;;
2598;SDS011;1309;48.810;8.954;2023-06-14T07:51:50;11.87;;;7.60;;
2598;SDS011;1309;48.810;8.954;2023-06-14T07:54:23;9.87;;;6.80;;
2598;SDS011;1309;48.810;8.954;2023-06-14T07:56:55;13.27;;;7.87;;
2598;SDS011;1309;48.810;8.954;2023-06-14T07:59:29;9.83;;;6.63;;
2598;SDS011;1309;48.810;8.954;2023-06-14T08:02:01;9.10;;;6.70;;
2598;SDS011;1309;48.810;8.954;2023-06-14T08:04:31;8.67;;;6.60;;
2598;SDS011;1309;48.810;8.954;2023-06-14T08:06:59;9.03;;;6.67;;
2598;SDS011;1309;48.810;8.954;2023-06-14T08:09:27;10.43;;;7.13;;
2598;SDS011;1309;48.810;8.954;2023-06-14T08:11:56;9.60;;;6.80;;
2598;SDS011;1309;48.810;8.954;2023-06-14T08:14:24;9.10;;;6.77;;
2598;SDS011;1309;48.810;8.954;2023-06-14T08:16:56;10.43;;;6.93;;
2598;SDS011;1309;48.810;8.954;2023-06-14T08:19:24;15.43;;;7.63;;
2598;SDS011;1309;48.810;8.954;2023-06-14T08:21:57;10.17;;;7.03;;
2598;SDS011;1309;48.810;8.954;2023-06-14T08:24:25;11.00;;;7.97;;
2598;SDS011;1309;48.810;8.954;2023-06-14T08:26:54;14.23;;;7.83;;
2598;SDS011;1309;48.810;8.954;2023-06-14T08:29:23;9.40;;;7.10;;
2598;SDS011;1309;48.810;8.954;2023-06-14T08:31:58;8.50;;;6.67;;
2598;SDS011;1309;48.810;8.954;2023-06-14T08:34:27;10.30;;;7.37;;
2598;SDS011;1309;48.810;8.954;2023-06-14T08:36:58;9.20;;;7.13;;
2598;SDS011;1309;48.810;8.954;2023-06-14T08:39:29;10.60;;;8.37;;
2598;SDS011;1309;48.810;8.954;2023-06-14T08:41:59;10.20;;;7.27;;
2598;SDS011;1309;48.810;8.954;2023-06-14T08:44:29;10.00;;;8.07;;
2598;SDS011;1309;48.810;8.954;2023-06-14T08:46:57;9.90;;;7.07;;
2598;SDS011;1309;48.810;8.954;2023-06-14T08:49:29;9.10;;;7.53;;
2598;SDS011;1309;48.810;8.954;2023-06-14T08:52:01;11.40;;;7.87;;
2598;SDS011;1309;48.810;8.954;2023-06-14T08:54:37;10.50;;;7.70;;
2598;SDS011;1309;48.810;8.954;2023-06-14T08:57:10;9.90;;;6.83;;
2598;SDS011;1309;48.810;8.954;2023-06-14T08:59:46;14.90;;;8.00;;
2598;SDS011;1309;48.810;8.954;2023-06-14T09:02:18;12.30;;;8.30;;
2598;SDS011;1309;48.810;8.954;2023-06-14T09:04:49;12.60;;;8.17;;
2598;SDS011;1309;48.810;8.954;2023-06-14T09:07:19;10.20;;;7.70;;
2598;SDS011;1309;48.810;8.954;2023-06-14T09:10:05;18.13;;;7.60;;
2598;SDS011;1309;48.810;8.954;2023-06-14T09:12:39;7.47;;;6.27;;
2598;SDS011;1309;48.810;8.954;2023-06-14T09:15:11;18.27;;;12.07;;
2598;SDS011;1309;48.810;8.954;2023-06-14T09:17:42;12.23;;;7.20;;
2598;SDS011;1309;48.810;8.954;2023-06-14T09:20:14;10.77;;;8.40;;
2598;SDS011;1309;48.810;8.954;2023-06-14T09:22:47;10.20;;;8.37;;
2598;SDS011;1309;48.810;8.954;2023-06-14T09:25:19;12.93;;;7.77;;
2598;SDS011;1309;48.810;8.954;2023-06-14T09:28:06;10.77;;;7.70;;
2598;SDS011;1309;48.810;8.954;2023-06-14T09:30:35;12.93;;;7.77;;
2598;SDS011;1309;48.810;8.954;2023-06-14T09:33:06;10.40;;;7.00;;
2598;SDS011;1309;48.810;8.954;2023-06-14T09:35:35;10.93;;;7.80;;
2598;SDS011;1309;48.810;8.954;2023-06-14T09:38:07;11.53;;;7.40;;
2598;SDS011;1309;48.810;8.954;2023-06-14T09:40:41;12.27;;;7.80;;
2598;SDS011;1309;48.810;8.954;2023-06-14T09:43:12;11.73;;;7.90;;
2598;SDS011;1309;48.810;8.954;2023-06-14T09:45:40;11.13;;;7.30;;
2598;SDS011;1309;48.810;8.954;2023-06-14T09:48:12;12.83;;;7.80;;
2598;SDS011;1309;48.810;8.954;2023-06-14T09:50:45;11.17;;;7.00;;
2598;SDS011;1309;48.810;8.954;2023-06-14T09:53:24;11.10;;;6.93;;
2598;SDS011;1309;48.810;8.954;2023-06-14T09:55:56;10.33;;;7.57;;
2598;SDS011;1309;48.810;8.954;2023-06-14T09:58:30;12.40;;;6.57;;
2598;SDS011;1309;48.810;8.954;2023-06-14T10:01:01;11.10;;;7.03;;
2598;SDS011;1309;48.810;8.954;2023-06-14T10:03:29;9.40;;;7.50;;
2598;SDS011;1309;48.810;8.954;2023-06-14T10:06:15;13.43;;;7.43;;
2598;SDS011;1309;48.810;8.954;2023-06-14T10:08:45;9.50;;;7.70;;
2598;SDS011;1309;48.810;8.954;2023-06-14T10:11:18;12.57;;;7.37;;
2598;SDS011;1309;48.810;8.954;2023-06-14T10:13:46;8.97;;;7.20;;
2598;SDS011;1309;48.810;8.954;2023-06-14T10:16:15;7.23;;;6.10;;
2598;SDS011;1309;48.810;8.954;2023-06-14T10:18:48;10.27;;;5.93;;
2598;SDS011;1309;48.810;8.954;2023-06-14T10:21:23;9.10;;;6.73;;
2598;SDS011;1309;48.810;8.954;2023-06-14T10:23:56;9.03;;;5.70;;
2598;SDS011;1309;48.810;8.954;2023-06-14T10:26:49;11.23;;;6.57;;
2598;SDS011;1309;48.810;8.954;2023-06-14T10:29:25;9.47;;;6.77;;
2598;SDS011;1309;48.810;8.954;2023-06-14T10:32:01;7.27;;;6.47;;
2598;SDS011;1309;48.810;8.954;2023-06-14T10:34:38;9.43;;;5.80;;
2598;SDS011;1309;48.810;8.954;2023-06-14T10:37:06;9.80;;;5.73;;
2598;SDS011;1309;48.810;8.954;2023-06-14T10:39:39;7.53;;;5.83;;
